Time;durP1;ratioP1;P1;durP2;ratioP2;P2;SDS_P1;SDS_P2;PMS_P1;PMS_P2;Temp;Humidity;BMP_temperature;BMP_pressure;BME280_temperature;BME280_humidity;BME280_pressure;Samples;Min_cycle;Max_cycle;Signal;HPM_P1;HPM_P2
2023/05/05 00:01:39;;;;;;;0.60;0.60;;;;;;;6.22;59.97;99575.47;5053730;28;20047;-78
2023/05/05 00:04:08;;;;;;;0.70;0.70;;;;;;;6.12;61.15;99580.41;5072261;28;20048;-80
2023/05/05 00:06:36;;;;;;;0.60;0.60;;;;;;;5.99;61.97;99576.63;5071877;28;20049;-79
2023/05/05 00:09:03;;;;;;;0.60;0.60;;;;;;;5.94;62.03;99576.41;5072025;28;20044;-80
2023/05/05 00:11:32;;;;;;;0.70;0.70;;;;;;;5.89;62.11;99568.13;5071822;28;20056;-79
2023/05/05 00:14:00;;;;;;;0.50;0.50;;;;;;;5.86;62.68;99569.34;5072061;28;20056;-79
2023/05/05 00:16:27;;;;;;;0.60;0.60;;;;;;;5.82;63.50;99565.44;5054255;28;20411;-79
2023/05/05 00:18:54;;;;;;;0.60;0.60;;;;;;;5.75;63.91;99574.47;5071558;28;20392;-79
2023/05/05 00:21:21;;;;;;;0.60;0.60;;;;;;;5.64;64.48;99563.28;5071366;28;20052;-78
2023/05/05 00:23:49;;;;;;;0.60;0.60;;;;;;;5.54;65.06;99565.47;5070652;28;20063;-80
2023/05/05 00:26:16;;;;;;;0.60;0.60;;;;;;;5.46;65.96;99562.97;5071199;28;20091;-79
2023/05/05 00:28:47;;;;;;;0.70;0.70;;;;;;;5.45;65.71;99569.38;5071360;28;20051;-79
2023/05/05 00:31:15;;;;;;;0.70;0.70;;;;;;;5.43;65.50;99558.03;5053780;28;20056;-79
2023/05/05 00:33:43;;;;;;;0.65;0.65;;;;;;;5.54;64.91;99556.63;5053236;28;20063;-79
2023/05/05 00:36:10;;;;;;;0.70;0.70;;;;;;;5.58;64.96;99563.25;5052931;28;20057;-79
2023/05/05 00:38:37;;;;;;;0.63;0.63;;;;;;;5.59;65.22;99563.03;5066907;28;20152;-79
2023/05/05 00:41:04;;;;;;;0.50;0.50;;;;;;;5.56;65.81;99568.78;5051186;28;20047;-80
2023/05/05 00:43:31;;;;;;;0.70;0.70;;;;;;;5.49;65.88;99549.19;5051447;28;20053;-79
2023/05/05 00:46:08;;;;;;;0.70;0.70;;;;;;;5.49;66.07;99553.72;5047117;28;20511;-79
2023/05/05 00:48:36;;;;;;;0.60;0.60;;;;;;;5.41;66.62;99554.72;5053340;28;20090;-79
2023/05/05 00:51:07;;;;;;;0.60;0.60;;;;;;;5.39;67.08;99560.28;5053156;28;20079;-79
2023/05/05 00:53:35;;;;;;;0.70;0.70;;;;;;;5.31;67.27;99556.91;5052641;28;20840;-79
2023/05/05 00:56:05;;;;;;;0.70;0.70;;;;;;;5.34;67.54;99564.56;5052718;28;20514;-79
2023/05/05 00:58:32;;;;;;;0.63;0.63;;;;;;;5.37;67.58;99572.22;5052898;28;20411;-79
2023/05/05 01:01:00;;;;;;;0.68;0.68;;;;;;;5.35;67.48;99567.03;5052269;28;20052;-80
2023/05/05 01:03:28;;;;;;;0.70;0.70;;;;;;;5.28;67.50;99568.03;5069887;28;20048;-79
2023/05/05 01:06:01;;;;;;;0.70;0.70;;;;;;;5.22;67.80;99559.75;5035309;28;20044;-79
2023/05/05 01:09:05;;;;;;;0.60;0.60;;;;;;;5.20;67.46;99566.31;5035519;28;20482;-79
2023/05/05 01:12:19;;;;;;;0.70;0.70;;;;;;;5.23;66.64;99568.59;5052226;28;20478;-79
2023/05/05 01:15:00;;;;;;;0.70;0.70;;;;;;;5.16;66.38;99555.16;5054789;28;20057;-79
2023/05/05 01:17:40;;;;;;;0.70;0.70;;;;;;;5.22;66.10;99566.97;5069848;28;20495;-78
2023/05/05 01:20:30;;;;;;;0.70;0.70;;;;;;;5.21;65.71;99558.09;5019722;28;20502;-79
2023/05/05 01:23:00;;;;;;;0.50;0.50;;;;;;;5.15;65.92;99555.38;5051951;28;20102;-80
2023/05/05 01:25:56;;;;;;;0.70;0.70;;;;;;;5.13;65.99;99555.56;5052361;28;20053;-79
2023/05/05 01:29:01;;;;;;;0.60;0.60;;;;;;;5.11;65.59;99551.44;4971457;28;20078;-80
2023/05/05 01:31:54;;;;;;;0.60;0.60;;;;;;;5.08;65.93;99549.97;4987913;28;20433;-80
2023/05/05 01:34:27;;;;;;;0.60;0.60;;;;;;;5.06;65.31;99537.81;4971631;28;20050;-79
2023/05/05 01:37:06;;;;;;;0.68;0.68;;;;;;;5.14;64.97;99554.56;4972333;28;20068;-79
2023/05/05 01:39:33;;;;;;;0.65;0.65;;;;;;;5.15;64.20;99542.81;4955526;28;20050;-79
2023/05/05 01:42:05;;;;;;;0.60;0.60;;;;;;;5.17;63.83;99546.13;4971852;28;20501;-78
2023/05/05 01:44:35;;;;;;;0.70;0.70;;;;;;;5.14;63.90;99551.88;4972137;28;20077;-78
2023/05/05 01:47:04;;;;;;;0.60;0.60;;;;;;;5.07;64.23;99548.34;4988065;28;20567;-80
2023/05/05 01:49:32;;;;;;;0.60;0.60;;;;;;;5.02;64.83;99547.28;4972104;28;20614;-80
2023/05/05 01:52:00;;;;;;;0.52;0.52;;;;;;;5.00;64.77;99550.13;4971578;28;20054;-78
2023/05/05 01:54:28;;;;;;;0.60;0.60;;;;;;;5.07;64.01;99539.50;4939940;28;20062;-79
2023/05/05 01:57:02;;;;;;;0.70;0.70;;;;;;;5.12;63.38;99537.06;4972441;28;20050;-79
2023/05/05 01:59:31;;;;;;;0.70;0.70;;;;;;;5.12;63.29;99540.56;4955640;28;20051;-80
2023/05/05 02:01:59;;;;;;;0.70;0.70;;;;;;;5.15;63.38;99550.84;4987466;28;20051;-79
2023/05/05 02:04:30;;;;;;;0.70;0.70;;;;;;;5.14;63.58;99540.34;4965266;28;20118;-79
2023/05/05 02:06:57;;;;;;;0.77;0.77;;;;;;;5.17;63.53;99551.50;5015316;28;20049;-79
2023/05/05 02:09:28;;;;;;;0.70;0.70;;;;;;;5.19;63.23;99546.78;5049081;28;20092;-78
2023/05/05 02:11:57;;;;;;;0.60;0.60;;;;;;;5.22;63.00;99546.38;5024952;28;20054;-80
2023/05/05 02:14:27;;;;;;;0.70;0.70;;;;;;;5.25;62.97;99536.31;5010487;28;20094;-79
2023/05/05 02:16:56;;;;;;;0.60;0.60;;;;;;;5.28;62.88;99554.66;5013071;28;20669;-80
2023/05/05 02:19:29;;;;;;;0.60;0.60;;;;;;;5.29;62.77;99556.28;5013001;28;20058;-79
2023/05/05 02:21:56;;;;;;;0.60;0.60;;;;;;;5.30;62.45;99553.41;5013061;28;20358;-78
2023/05/05 02:24:25;;;;;;;0.70;0.70;;;;;;;5.40;62.17;99556.56;5026344;28;20436;-79
2023/05/05 02:26:52;;;;;;;0.60;0.60;;;;;;;5.38;62.28;99560.47;5049082;28;20099;-79
2023/05/05 02:29:50;;;;;;;0.65;0.65;;;;;;;5.46;62.24;99564.84;5048927;28;20038;-80
2023/05/05 02:32:31;;;;;;;0.70;0.70;;;;;;;5.52;61.14;99556.84;5031445;28;20092;-79
2023/05/05 02:35:11;;;;;;;0.60;0.60;;;;;;;5.66;60.09;99544.34;5002701;28;20058;-79
2023/05/05 02:37:47;;;;;;;0.70;0.70;;;;;;;5.74;59.66;99546.00;5004159;28;20056;-80
2023/05/05 02:40:19;;;;;;;0.70;0.70;;;;;;;5.77;59.39;99548.28;5016802;28;20103;-78
2023/05/05 02:42:52;;;;;;;0.70;0.70;;;;;;;5.85;58.79;99551.63;5049297;28;20599;-79
2023/05/05 02:45:23;;;;;;;0.68;0.68;;;;;;;5.83;58.54;99548.31;5016717;28;20578;-80
2023/05/05 02:47:50;;;;;;;0.60;0.60;;;;;;;5.92;58.53;99548.13;5016104;28;20046;-79
2023/05/05 02:50:17;;;;;;;0.60;0.60;;;;;;;5.88;58.46;99538.88;5048888;28;20045;-80
2023/05/05 02:52:53;;;;;;;0.70;0.70;;;;;;;5.86;58.49;99544.41;5032256;28;20049;-79
2023/05/05 02:55:22;;;;;;;0.60;0.60;;;;;;;5.86;58.65;99552.47;5032125;28;20071;-79
2023/05/05 02:57:59;;;;;;;0.70;0.70;;;;;;;5.79;58.91;99543.56;5048766;28;20424;-80
2023/05/05 03:00:28;;;;;;;0.70;0.70;;;;;;;5.77;58.91;99549.13;4999684;28;20045;-79
2023/05/05 03:03:12;;;;;;;0.70;0.70;;;;;;;5.74;59.26;99549.50;5048860;28;20045;-79
2023/05/05 03:05:46;;;;;;;0.80;0.80;;;;;;;5.75;59.03;99556.53;5016550;28;20111;-79
2023/05/05 03:08:26;;;;;;;0.60;0.60;;;;;;;5.65;59.12;99548.06;5048354;28;20480;-79
2023/05/05 03:11:05;;;;;;;0.70;0.70;;;;;;;5.65;59.58;99548.88;5034517;28;20128;-80
2023/05/05 03:13:39;;;;;;;0.70;0.70;;;;;;;5.59;59.59;99541.63;5055305;28;20049;-78
2023/05/05 03:16:07;;;;;;;0.70;0.70;;;;;;;5.68;59.67;99544.16;5055547;28;20052;-78
2023/05/05 03:18:36;;;;;;;0.70;0.70;;;;;;;5.64;59.86;99547.19;5038650;28;20051;-79
2023/05/05 03:21:09;;;;;;;0.70;0.70;;;;;;;5.65;60.01;99543.53;5055660;28;20052;-79
2023/05/05 03:23:39;;;;;;;0.70;0.70;;;;;;;5.75;60.01;99545.81;5047018;28;20099;-79
2023/05/05 03:26:16;;;;;;;0.70;0.70;;;;;;;5.82;59.89;99544.00;5034537;28;20045;-79
2023/05/05 03:28:44;;;;;;;0.70;0.70;;;;;;;5.86;59.72;99547.91;5034683;28;20131;-80
2023/05/05 03:31:18;;;;;;;0.70;0.70;;;;;;;5.88;59.82;99565.66;5019396;28;20516;-77
2023/05/05 03:33:50;;;;;;;0.60;0.60;;;;;;;5.82;60.23;99564.59;5024626;28;20094;-80
2023/05/05 03:36:23;;;;;;;0.60;0.60;;;;;;;5.59;60.60;99556.88;5054501;28;20059;-79
2023/05/05 03:38:52;;;;;;;0.70;0.70;;;;;;;5.41;61.06;99560.88;5050742;28;20511;-76
2023/05/05 03:41:21;;;;;;;0.70;0.70;;;;;;;5.19;61.65;99565.50;5034471;28;20049;-77
2023/05/05 03:43:52;;;;;;;0.60;0.60;;;;;;;5.02;62.31;99566.81;5036719;28;20053;-79
2023/05/05 03:46:20;;;;;;;0.70;0.70;;;;;;;4.95;62.86;99571.28;5036913;28;20041;-79
2023/05/05 03:48:48;;;;;;;0.70;0.70;;;;;;;5.06;63.00;99577.94;5025944;28;20135;-79
2023/05/05 03:51:15;;;;;;;0.70;0.70;;;;;;;5.26;62.91;99568.22;5056325;28;20045;-79
2023/05/05 03:53:42;;;;;;;0.73;0.73;;;;;;;5.38;62.71;99568.50;5054091;28;20538;-79
2023/05/05 03:56:15;;;;;;;0.70;0.70;;;;;;;5.32;62.35;99556.72;5055507;28;20139;-81
2023/05/05 03:58:42;;;;;;;0.75;0.75;;;;;;;5.20;62.95;99564.47;5060547;28;20048;-78
2023/05/05 04:01:09;;;;;;;0.70;0.70;;;;;;;5.37;63.22;99569.53;5036692;28;20191;-79
2023/05/05 04:03:37;;;;;;;0.70;0.70;;;;;;;5.57;62.60;99581.19;5036973;28;20055;-78
2023/05/05 04:06:04;;;;;;;0.73;0.73;;;;;;;5.48;62.65;99576.19;5037780;28;20052;-80
2023/05/05 04:08:35;;;;;;;0.65;0.65;;;;;;;5.33;63.13;99581.66;5046823;28;20087;-77
2023/05/05 04:11:21;;;;;;;0.77;0.77;;;;;;;5.41;63.06;99584.16;5057448;28;20068;-79
2023/05/05 04:13:53;;;;;;;0.70;0.70;;;;;;;5.40;63.04;99587.88;5071410;28;20166;-79
2023/05/05 04:16:21;;;;;;;0.70;0.70;;;;;;;5.36;63.25;99590.09;5054072;28;20064;-79
2023/05/05 04:18:48;;;;;;;0.70;0.70;;;;;;;5.30;63.35;99600.78;5053574;28;20481;-78
2023/05/05 04:21:15;;;;;;;0.70;0.70;;;;;;;5.07;63.92;99593.81;5053444;28;20123;-79
2023/05/05 04:23:43;;;;;;;0.80;0.80;;;;;;;5.02;64.24;99593.56;5045224;28;20048;-78
2023/05/05 04:26:10;;;;;;;0.80;0.80;;;;;;;5.02;64.29;99598.94;5057373;28;20060;-78
2023/05/05 04:28:37;;;;;;;0.70;0.70;;;;;;;5.05;63.93;99606.56;5065342;28;20049;-78
2023/05/05 04:31:05;;;;;;;0.80;0.80;;;;;;;5.04;64.04;99601.38;5041608;28;20098;-78
2023/05/05 04:33:38;;;;;;;0.80;0.80;;;;;;;4.94;64.06;99599.06;5040402;28;20504;-78
2023/05/05 04:36:09;;;;;;;0.70;0.70;;;;;;;5.00;64.02;99598.28;5041105;28;20052;-78
2023/05/05 04:38:36;;;;;;;0.70;0.70;;;;;;;4.92;64.13;99591.22;5057448;28;20057;-79
2023/05/05 04:41:07;;;;;;;0.80;0.80;;;;;;;4.97;63.83;99612.06;5042590;28;20059;-80
2023/05/05 04:43:36;;;;;;;0.70;0.70;;;;;;;5.00;63.95;99603.63;5034516;28;20052;-80
2023/05/05 04:46:04;;;;;;;0.80;0.80;;;;;;;4.99;63.36;99610.03;5036131;28;20064;-80
2023/05/05 04:48:40;;;;;;;0.80;0.80;;;;;;;5.03;63.68;99619.28;5043221;28;20585;-81
2023/05/05 04:51:07;;;;;;;0.80;0.80;;;;;;;5.06;63.54;99624.25;5036873;28;20052;-80
2023/05/05 04:53:35;;;;;;;0.80;0.80;;;;;;;5.08;63.26;99624.91;5046454;28;20078;-81
2023/05/05 04:56:02;;;;;;;0.70;0.70;;;;;;;5.11;63.34;99619.16;5059529;28;20052;-80
2023/05/05 04:58:36;;;;;;;0.70;0.70;;;;;;;5.20;62.91;99625.19;5038726;28;20060;-81
2023/05/05 05:01:04;;;;;;;0.60;0.60;;;;;;;5.13;62.64;99625.13;5049168;28;20075;-79
2023/05/05 05:03:31;;;;;;;0.70;0.70;;;;;;;5.18;62.63;99619.22;5059923;28;20094;-80
2023/05/05 05:05:59;;;;;;;0.80;0.80;;;;;;;5.29;62.21;99632.06;5065802;28;20542;-83
2023/05/05 05:08:26;;;;;;;0.75;0.75;;;;;;;5.30;62.05;99636.41;5044389;28;20052;-80
2023/05/05 05:10:53;;;;;;;0.80;0.80;;;;;;;5.36;62.31;99627.56;5060376;28;20053;-80
2023/05/05 05:13:20;;;;;;;0.70;0.70;;;;;;;5.47;61.55;99638.75;5024254;28;20491;-79
2023/05/05 05:15:46;;;;;;;0.70;0.70;;;;;;;5.38;61.14;99622.03;5043424;28;20469;-80
2023/05/05 05:18:17;;;;;;;0.70;0.70;;;;;;;5.48;61.20;99637.75;5041907;28;20132;-82
2023/05/05 05:21:03;;;;;;;0.77;0.77;;;;;;;5.61;60.72;99633.28;5019573;28;20139;-81
2023/05/05 05:23:31;;;;;;;0.80;0.80;;;;;;;5.86;60.21;99636.31;5038857;28;20099;-80
2023/05/05 05:26:01;;;;;;;0.70;0.70;;;;;;;5.90;59.72;99636.78;5032569;28;20044;-80
2023/05/05 05:28:28;;;;;;;0.70;0.70;;;;;;;5.86;60.04;99640.84;5036407;28;20189;-79
2023/05/05 05:31:00;;;;;;;0.80;0.80;;;;;;;6.11;59.52;99632.34;5045284;28;20072;-79
2023/05/05 05:33:28;;;;;;;0.75;0.75;;;;;;;6.37;59.27;99645.00;5040716;28;20044;-80
2023/05/05 05:35:57;;;;;;;0.70;0.70;;;;;;;6.62;58.66;99626.50;5048451;28;20062;-81
2023/05/05 05:38:25;;;;;;;0.80;0.80;;;;;;;6.83;57.42;99638.91;5045734;28;20481;-80
2023/05/05 05:40:55;;;;;;;0.70;0.70;;;;;;;6.79;57.65;99635.84;5051071;28;20048;-79
2023/05/05 05:43:23;;;;;;;0.80;0.80;;;;;;;7.24;56.97;99633.38;5041686;28;20504;-79
2023/05/05 05:45:51;;;;;;;0.80;0.80;;;;;;;7.73;55.65;99636.59;5045437;28;20053;-79
2023/05/05 05:48:20;;;;;;;0.80;0.80;;;;;;;8.07;54.38;99643.50;5034127;28;20503;-80
2023/05/05 05:50:48;;;;;;;0.85;0.85;;;;;;;8.17;53.72;99635.00;5050099;28;20068;-79
2023/05/05 05:53:16;;;;;;;0.70;0.70;;;;;;;8.08;53.47;99626.38;5033765;28;20110;-79
2023/05/05 05:55:48;;;;;;;0.70;0.70;;;;;;;7.96;53.69;99625.38;5039672;28;20491;-79
2023/05/05 05:58:18;;;;;;;0.70;0.70;;;;;;;7.96;53.78;99644.19;5028613;28;20053;-80
2023/05/05 06:00:47;;;;;;;0.70;0.70;;;;;;;7.82;53.68;99632.63;5040484;28;20060;-79
2023/05/05 06:03:14;;;;;;;0.70;0.70;;;;;;;7.69;54.84;99633.50;5037214;28;20041;-79
2023/05/05 06:05:41;;;;;;;0.70;0.70;;;;;;;7.68;53.99;99631.03;5053728;28;20144;-80
2023/05/05 06:08:13;;;;;;;0.70;0.70;;;;;;;7.81;54.18;99634.50;5032156;28;20491;-78
2023/05/05 06:10:46;;;;;;;0.65;0.65;;;;;;;7.97;54.29;99637.75;5037758;28;20064;-79
2023/05/05 06:13:34;;;;;;;0.70;0.70;;;;;;;8.12;54.26;99629.44;5045232;28;20048;-78
2023/05/05 06:16:03;;;;;;;0.80;0.80;;;;;;;8.43;53.40;99634.06;5045130;28;20056;-80
2023/05/05 06:18:30;;;;;;;0.80;0.80;;;;;;;8.46;52.53;99633.66;5041683;28;20075;-79
2023/05/05 06:20:57;;;;;;;0.82;0.82;;;;;;;8.46;52.12;99634.47;5055602;28;20071;-79
2023/05/05 06:23:26;;;;;;;0.70;0.70;;;;;;;8.44;52.07;99628.50;5047738;28;20997;-80
2023/05/05 06:25:58;;;;;;;0.70;0.70;;;;;;;8.66;52.11;99634.38;5041477;28;20040;-81
2023/05/05 06:28:25;;;;;;;0.70;0.70;;;;;;;8.97;52.23;99634.59;5048321;28;20044;-78
2023/05/05 06:30:52;;;;;;;0.70;0.70;;;;;;;8.96;50.73;99644.50;5046159;28;20048;-80
2023/05/05 06:33:19;;;;;;;0.80;0.80;;;;;;;8.78;50.98;99633.66;5062437;28;20119;-80
2023/05/05 06:35:48;;;;;;;0.70;0.70;;;;;;;8.56;51.09;99642.09;5044831;28;20080;-79
2023/05/05 06:38:15;;;;;;;0.70;0.70;;;;;;;8.35;51.54;99637.00;5063189;28;20048;-80
2023/05/05 06:40:42;;;;;;;0.75;0.75;;;;;;;8.42;52.11;99640.50;5067481;28;20052;-79
2023/05/05 06:43:09;;;;;;;0.70;0.70;;;;;;;8.57;51.62;99646.41;5061419;28;20129;-79
2023/05/05 06:45:41;;;;;;;0.70;0.70;;;;;;;8.46;51.74;99633.66;5015104;28;20053;-79
2023/05/05 06:48:09;;;;;;;0.70;0.70;;;;;;;8.19;51.79;99660.63;5046429;28;20052;-79
2023/05/05 06:53:25;;;;;;;0.80;0.80;;;;;;;7.93;52.61;99650.81;5064649;28;20468;-80
2023/05/05 06:55:56;;;;;;;0.80;0.80;;;;;;;8.02;52.66;99664.84;5048998;28;20087;-79
2023/05/05 06:58:24;;;;;;;0.80;0.80;;;;;;;7.97;52.49;99670.00;5050517;28;20110;-79
2023/05/05 07:00:51;;;;;;;0.80;0.80;;;;;;;7.88;52.06;99647.94;5042354;28;20055;-79
2023/05/05 07:03:18;;;;;;;0.70;0.70;;;;;;;8.08;52.08;99668.53;5056896;28;20064;-79
2023/05/05 07:05:52;;;;;;;0.70;0.70;;;;;;;8.45;51.63;99659.72;5044115;28;20572;-79
2023/05/05 07:08:19;;;;;;;0.70;0.70;;;;;;;8.74;51.04;99673.66;5047671;28;20048;-77
2023/05/05 07:10:49;;;;;;;0.80;0.80;;;;;;;9.04;50.42;99678.41;5069109;28;20045;-78
2023/05/05 07:13:35;;;;;;;0.90;0.90;;;;;;;9.47;50.02;99678.50;5063715;28;20142;-79
2023/05/05 07:16:03;;;;;;;0.80;0.80;;;;;;;9.86;49.08;99667.56;5059079;28;20064;-78
2023/05/05 07:18:31;;;;;;;0.70;0.70;;;;;;;10.06;48.32;99665.47;5069696;28;20048;-77
2023/05/05 07:20:58;;;;;;;0.90;0.90;;;;;;;10.67;47.39;99671.78;5068529;28;20045;-79
2023/05/05 07:23:25;;;;;;;0.80;0.80;;;;;;;10.65;45.70;99659.56;5067063;28;20051;-77
2023/05/05 07:25:53;;;;;;;0.70;0.70;;;;;;;10.16;47.10;99662.25;5071866;28;20398;-78
2023/05/05 07:28:21;;;;;;;0.68;0.68;;;;;;;10.08;47.12;99667.94;5069183;28;20139;-78
2023/05/05 07:33:37;;;;;;;0.70;0.70;;;;;;;8.99;48.73;99676.41;5054465;28;20045;-78
2023/05/05 07:36:04;;;;;;;0.80;0.80;;;;;;;8.70;49.62;99683.19;5072603;28;20049;-78
2023/05/05 07:38:31;;;;;;;0.80;0.80;;;;;;;8.84;49.79;99678.56;5054266;28;20419;-78
2023/05/05 07:41:05;;;;;;;0.70;0.70;;;;;;;8.76;49.75;99686.88;5072507;28;20507;-78
2023/05/05 07:43:32;;;;;;;0.60;0.60;;;;;;;8.71;50.08;99684.84;5072442;28;20455;-78
2023/05/05 07:46:04;;;;;;;0.70;0.70;;;;;;;8.71;50.19;99689.38;5037568;28;20106;-78
2023/05/05 07:48:35;;;;;;;0.60;0.60;;;;;;;8.27;50.66;99688.34;5037981;28;20453;-78
2023/05/05 07:51:02;;;;;;;0.70;0.70;;;;;;;7.82;51.52;99692.59;5071447;28;20151;-77
2023/05/05 07:53:29;;;;;;;0.70;0.70;;;;;;;7.71;52.51;99701.28;5072050;28;20487;-79
2023/05/05 07:55:56;;;;;;;0.70;0.70;;;;;;;7.73;52.59;99707.28;5053854;28;20075;-79
2023/05/05 07:58:24;;;;;;;0.70;0.70;;;;;;;7.55;52.86;99691.81;5053891;28;20047;-78
2023/05/05 08:00:51;;;;;;;0.70;0.70;;;;;;;7.36;53.38;99712.25;5071691;28;20048;-78
2023/05/05 08:03:23;;;;;;;0.70;0.70;;;;;;;7.29;54.11;99727.56;5054033;28;20052;-77
2023/05/05 08:05:53;;;;;;;0.70;0.70;;;;;;;7.10;55.72;99704.19;5071168;28;20404;-78
2023/05/05 08:08:23;;;;;;;0.80;0.80;;;;;;;7.16;56.70;99730.19;5071386;28;20106;-79
2023/05/05 08:10:51;;;;;;;0.80;0.80;;;;;;;7.13;57.14;99722.56;5070995;28;20476;-78
2023/05/05 08:13:38;;;;;;;0.77;0.77;;;;;;;7.31;57.27;99738.06;5071329;28;20041;-78
2023/05/05 08:16:05;;;;;;;0.80;0.80;;;;;;;7.19;56.74;99721.75;5071498;28;20053;-78
2023/05/05 08:18:34;;;;;;;0.80;0.80;;;;;;;7.25;56.95;99739.72;5071777;28;20511;-79
2023/05/05 08:21:05;;;;;;;0.80;0.80;;;;;;;7.18;56.66;99733.53;5071530;28;20056;-77
2023/05/05 08:23:33;;;;;;;0.80;0.80;;;;;;;7.22;57.40;99752.75;5054198;28;20087;-79
2023/05/05 08:26:21;;;;;;;0.80;0.80;;;;;;;7.34;56.22;99743.88;5071043;28;20205;-79
2023/05/05 08:28:48;;;;;;;0.80;0.80;;;;;;;7.56;57.81;99735.59;5070832;28;20063;-79
2023/05/05 08:31:33;;;;;;;0.80;0.80;;;;;;;8.12;56.60;99742.34;5071549;28;20048;-79
2023/05/05 08:34:01;;;;;;;0.90;0.90;;;;;;;8.63;53.42;99737.06;5070937;28;20414;-78
2023/05/05 08:36:29;;;;;;;0.82;0.82;;;;;;;8.52;52.46;99748.47;5053551;28;20045;-78
2023/05/05 08:38:56;;;;;;;0.70;0.70;;;;;;;7.98;53.54;99746.94;5032771;28;20045;-78
2023/05/05 08:41:23;;;;;;;0.80;0.80;;;;;;;7.88;54.44;99758.13;5050995;28;20850;-78
2023/05/05 08:43:50;;;;;;;0.75;0.75;;;;;;;7.71;54.93;99764.94;5050808;28;20149;-78
2023/05/05 08:46:20;;;;;;;0.70;0.70;;;;;;;7.84;54.68;99764.13;5033137;28;20431;-79
2023/05/05 08:48:53;;;;;;;0.73;0.73;;;;;;;7.97;54.59;99766.78;5033594;28;20096;-78
2023/05/05 08:51:23;;;;;;;0.70;0.70;;;;;;;7.88;54.29;99768.06;5050838;28;20041;-78
2023/05/05 08:53:58;;;;;;;0.80;0.80;;;;;;;7.54;54.45;99751.09;5050625;28;20049;-78
2023/05/05 08:56:33;;;;;;;0.70;0.70;;;;;;;7.31;55.23;99767.59;5050799;28;20053;-79
2023/05/05 08:59:01;;;;;;;0.70;0.70;;;;;;;7.23;55.71;99767.81;5050467;28;20490;-79
2023/05/05 09:01:31;;;;;;;0.70;0.70;;;;;;;7.20;56.69;99777.09;5053910;28;20045;-78
2023/05/05 09:03:58;;;;;;;0.70;0.70;;;;;;;7.18;56.40;99787.22;5070705;28;20044;-78
2023/05/05 09:06:26;;;;;;;0.70;0.70;;;;;;;6.90;57.11;99785.47;5036233;28;20044;-78
2023/05/05 09:08:56;;;;;;;0.70;0.70;;;;;;;6.87;57.56;99790.44;5070388;28;20049;-79
2023/05/05 09:11:26;;;;;;;0.70;0.70;;;;;;;6.82;57.47;99803.63;5069995;28;20143;-78
2023/05/05 09:13:54;;;;;;;0.70;0.70;;;;;;;6.51;57.82;99795.03;5070117;28;20063;-79
2023/05/05 09:16:21;;;;;;;0.70;0.70;;;;;;;6.60;57.90;99805.59;5070150;28;20059;-79
2023/05/05 09:18:49;;;;;;;0.80;0.80;;;;;;;6.87;57.28;99788.56;5052318;28;20247;-78
2023/05/05 09:21:21;;;;;;;0.80;0.80;;;;;;;7.34;55.76;99789.53;5070315;28;20094;-79
2023/05/05 09:24:04;;;;;;;0.80;0.80;;;;;;;7.63;55.90;99803.59;5069451;28;20135;-79
2023/05/05 09:26:41;;;;;;;0.70;0.70;;;;;;;7.55;55.23;99795.75;5053389;28;20050;-78
2023/05/05 09:29:18;;;;;;;0.70;0.70;;;;;;;7.33;54.86;99785.16;5070462;28;20045;-78
2023/05/05 09:32:04;;;;;;;0.70;0.70;;;;;;;6.90;55.13;99792.72;5052702;28;20048;-79
2023/05/05 09:34:34;;;;;;;0.73;0.73;;;;;;;6.70;55.91;99792.63;5070065;28;20052;-79
2023/05/05 09:37:02;;;;;;;0.90;0.90;;;;;;;6.86;55.00;99792.28;5052055;28;20048;-79
2023/05/05 09:39:29;;;;;;;0.90;0.90;;;;;;;7.50;54.26;99790.16;5059157;28;20139;-79
2023/05/05 09:41:57;;;;;;;0.90;0.90;;;;;;;8.29;52.87;99796.53;5032124;28;20066;-79
2023/05/05 09:44:34;;;;;;;0.80;0.80;;;;;;;8.37;51.24;99783.66;5016600;28;20139;-79
2023/05/05 09:47:01;;;;;;;0.80;0.80;;;;;;;8.07;51.64;99786.00;5032139;28;20098;-78
2023/05/05 09:49:35;;;;;;;0.75;0.75;;;;;;;7.90;52.15;99792.84;5033147;28;20041;-79
2023/05/05 09:52:14;;;;;;;0.80;0.80;;;;;;;7.78;51.97;99780.03;5049831;28;20122;-78
2023/05/05 09:54:46;;;;;;;0.80;0.80;;;;;;;8.47;51.08;99785.94;5032509;28;20083;-79
2023/05/05 09:57:26;;;;;;;0.90;0.90;;;;;;;8.70;50.31;99790.00;5032473;28;20099;-78
2023/05/05 09:59:57;;;;;;;0.80;0.80;;;;;;;8.49;50.27;99793.81;5049911;28;20052;-79
2023/05/05 10:02:32;;;;;;;0.80;0.80;;;;;;;8.58;50.35;99788.00;5050003;28;20053;-78
2023/05/05 10:05:06;;;;;;;0.70;0.70;;;;;;;8.55;49.87;99792.97;5049679;28;20055;-78
2023/05/05 10:07:34;;;;;;;0.80;0.80;;;;;;;8.74;49.26;99796.63;5038469;28;20143;-79
2023/05/05 10:10:05;;;;;;;0.80;0.80;;;;;;;8.20;49.62;99795.91;5069574;28;20048;-79
2023/05/05 10:12:37;;;;;;;0.70;0.70;;;;;;;7.94;50.22;99791.41;5069897;28;20052;-79
2023/05/05 10:15:06;;;;;;;0.70;0.70;;;;;;;7.71;50.60;99791.81;5069877;28;20051;-80
2023/05/05 10:17:36;;;;;;;0.70;0.70;;;;;;;7.62;51.07;99793.88;5069930;28;20056;-78
2023/05/05 10:20:06;;;;;;;0.70;0.70;;;;;;;7.26;52.11;99784.31;5050942;28;20056;-78
2023/05/05 10:22:38;;;;;;;0.70;0.70;;;;;;;7.01;52.13;99777.88;5069776;28;20539;-78
2023/05/05 10:25:10;;;;;;;0.70;0.70;;;;;;;6.95;51.99;99804.47;5050250;28;20041;-78
2023/05/05 10:27:42;;;;;;;0.80;0.80;;;;;;;7.08;51.88;99794.81;5015838;28;20087;-78
2023/05/05 10:30:24;;;;;;;0.90;0.90;;;;;;;7.60;50.96;99799.47;5032345;28;20044;-78
2023/05/05 10:33:21;;;;;;;0.90;0.90;;;;;;;8.63;48.67;99790.03;5049240;28;20107;-78
2023/05/05 10:35:52;;;;;;;0.80;0.80;;;;;;;8.66;47.43;99784.25;5051602;28;20122;-78
2023/05/05 10:38:22;;;;;;;0.80;0.80;;;;;;;8.62;46.84;99794.59;5037497;28;20056;-78
2023/05/05 10:40:53;;;;;;;0.80;0.80;;;;;;;8.57;47.04;99788.19;5075696;28;20121;-79
2023/05/05 10:46:10;;;;;;;1.05;1.05;;;;;;;8.94;45.90;99793.81;5012200;28;20096;-79
2023/05/05 10:48:59;;;;;;;0.80;0.80;;;;;;;9.20;44.98;99790.19;5053110;28;20048;-79
2023/05/05 10:51:35;;;;;;;0.80;0.80;;;;;;;8.54;45.69;99785.94;5035027;28;20106;-79
2023/05/05 10:54:23;;;;;;;0.70;0.70;;;;;;;8.25;46.91;99794.25;5057256;28;20057;-79
2023/05/05 10:56:50;;;;;;;0.75;0.75;;;;;;;8.35;46.42;99791.13;5054766;28;20048;-79
2023/05/05 10:59:35;;;;;;;0.88;0.88;;;;;;;8.76;45.75;99794.53;5072907;28;20055;-79
2023/05/05 11:02:28;;;;;;;0.75;0.75;;;;;;;8.67;45.84;99785.88;5055446;28;20052;-78
2023/05/05 11:05:16;;;;;;;0.80;0.80;;;;;;;8.47;45.63;99788.63;5056962;28;20049;-78
2023/05/05 11:07:48;;;;;;;0.80;0.80;;;;;;;8.12;46.02;99796.94;5052718;28;20518;-78
2023/05/05 11:10:19;;;;;;;0.80;0.80;;;;;;;7.90;46.77;99785.63;5052578;28;20142;-78
2023/05/05 11:12:53;;;;;;;0.80;0.80;;;;;;;8.13;46.85;99793.25;5052361;28;20064;-79
2023/05/05 11:15:26;;;;;;;0.80;0.80;;;;;;;8.63;46.22;99784.66;5053596;28;20499;-79
2023/05/05 11:17:57;;;;;;;0.80;0.80;;;;;;;8.84;45.52;99786.25;5066862;28;20056;-79
2023/05/05 11:20:34;;;;;;;0.70;0.70;;;;;;;8.95;44.83;99782.84;5026799;28;20060;-78
2023/05/05 11:23:02;;;;;;;0.70;0.70;;;;;;;8.42;45.12;99783.06;5056001;28;20492;-80
2023/05/05 11:25:40;;;;;;;0.70;0.70;;;;;;;8.13;45.63;99790.56;5071166;28;20090;-78
2023/05/05 11:28:10;;;;;;;0.70;0.70;;;;;;;8.22;45.50;99781.22;5066027;28;20515;-78
2023/05/05 11:30:59;;;;;;;0.80;0.80;;;;;;;8.37;45.05;99783.66;5048134;28;20076;-80
2023/05/05 11:33:38;;;;;;;0.80;0.80;;;;;;;8.19;45.45;99780.81;5062622;28;20550;-79
2023/05/05 11:36:10;;;;;;;0.80;0.80;;;;;;;8.51;44.75;99780.97;5029293;28;20137;-78
2023/05/05 11:38:58;;;;;;;0.80;0.80;;;;;;;8.85;43.92;99783.31;5061564;28;20523;-79
2023/05/05 11:42:00;;;;;;;0.90;0.90;;;;;;;9.04;43.38;99778.88;5052091;28;20049;-79
2023/05/05 11:44:36;;;;;;;0.90;0.90;;;;;;;9.59;42.76;99781.00;5059504;28;20060;-79
2023/05/05 11:47:07;;;;;;;0.80;0.80;;;;;;;10.74;40.50;99772.41;5060664;28;20092;-80
2023/05/05 11:49:38;;;;;;;0.80;0.80;;;;;;;10.57;39.40;99783.00;5064393;28;20053;-79
2023/05/05 11:52:15;;;;;;;0.80;0.80;;;;;;;10.11;39.52;99772.69;5068480;28;20075;-79
2023/05/05 11:54:47;;;;;;;1.10;1.10;;;;;;;10.14;38.87;99772.22;5067327;28;20045;-80
2023/05/05 11:57:19;;;;;;;1.10;1.10;;;;;;;11.61;35.90;99755.78;5045912;28;20507;-79
2023/05/05 12:00:10;;;;;;;1.10;1.10;;;;;;;14.03;33.16;99759.53;5064011;28;20139;-79
2023/05/05 12:02:42;;;;;;;1.40;1.30;;;;;;;14.10;32.15;99757.44;5050851;28;20056;-80
2023/05/05 12:05:09;;;;;;;1.40;1.30;;;;;;;13.68;33.13;99770.63;5069409;28;20588;-80
2023/05/05 12:07:36;;;;;;;1.40;1.30;;;;;;;15.50;31.46;99764.28;5071569;28;20082;-79
2023/05/05 12:10:04;;;;;;;0.50;0.50;;;;;;;15.24;31.19;99771.38;5036820;28;20098;-79
2023/05/05 12:12:39;;;;;;;0.55;0.55;;;;;;;12.93;33.46;99762.50;5033718;28;20052;-79